Time;durP1;ratioP1;P1;durP2;ratioP2;P2;SDS_P1;SDS_P2;PMS_P1;PMS_P2;Temp;Humidity;BMP_temperature;BMP_pressure;BME280_temperature;BME280_humidity;BME280_pressure;Samples;Min_cycle;Max_cycle;Signal;HPM_P1;HPM_P2
2021/06/14 00:00:25;;;;;;;11.10;7.60;;;16.00;99.90;;;;;;5060116;28;20024;-80
2021/06/14 00:02:51;;;;;;;12.38;7.55;;;16.00;99.90;;;;;;5067549;28;21045;-80
2021/06/14 00:05:29;;;;;;;11.07;8.27;;;15.90;99.90;;;;;;5083501;28;20040;-80
2021/06/14 00:07:57;;;;;;;12.10;7.45;;;15.90;99.90;;;;;;5087074;28;20044;-81
2021/06/14 00:10:25;;;;;;;11.95;7.82;;;15.90;99.90;;;;;;5089743;28;20036;-81
2021/06/14 00:12:51;;;;;;;13.13;7.90;;;15.80;99.90;;;;;;5088578;28;20054;-81
2021/06/14 00:15:18;;;;;;;12.48;7.60;;;15.80;99.90;;;;;;5089649;28;20403;-80
2021/06/14 00:17:43;;;;;;;14.68;7.85;;;15.80;99.90;;;;;;5087799;28;20046;-80
2021/06/14 00:20:12;;;;;;;10.75;7.80;;;15.80;99.90;;;;;;5088123;28;20029;-81
2021/06/14 00:22:40;;;;;;;14.50;7.75;;;15.80;99.90;;;;;;5089154;28;20399;-80
2021/06/14 00:25:09;;;;;;;11.07;7.13;;;15.80;99.90;;;;;;5069783;28;20085;-81
2021/06/14 00:27:35;;;;;;;13.15;8.05;;;15.80;99.90;;;;;;5087500;28;20043;-80
2021/06/14 00:30:01;;;;;;;9.88;7.82;;;15.80;99.90;;;;;;5085197;28;20036;-80
2021/06/14 00:32:27;;;;;;;11.75;7.47;;;15.80;99.90;;;;;;5088467;28;20734;-80
2021/06/14 00:34:53;;;;;;;12.23;7.47;;;15.80;99.90;;;;;;5070684;28;20051;-81
2021/06/14 00:37:19;;;;;;;11.13;7.80;;;15.70;99.90;;;;;;5069950;28;20050;-80
2021/06/14 00:39:45;;;;;;;10.15;6.93;;;15.70;99.90;;;;;;5064264;28;20036;-81
2021/06/14 00:42:12;;;;;;;9.55;7.32;;;15.70;99.90;;;;;;5088223;28;20032;-80
2021/06/14 00:44:37;;;;;;;11.43;7.50;;;15.70;99.90;;;;;;5090023;28;20036;-80
2021/06/14 00:47:03;;;;;;;10.90;7.60;;;15.60;99.90;;;;;;5067627;28;20891;-80
2021/06/14 00:49:29;;;;;;;19.85;7.63;;;15.60;99.90;;;;;;5070608;28;20036;-80
2021/06/14 00:51:55;;;;;;;9.80;6.95;;;15.60;99.90;;;;;;5087676;28;20097;-80
2021/06/14 00:54:22;;;;;;;10.48;7.10;;;15.60;99.90;;;;;;5066347;28;20034;-80
2021/06/14 00:56:48;;;;;;;8.35;6.68;;;15.60;99.90;;;;;;5070130;28;20071;-80
2021/06/14 00:59:15;;;;;;;12.77;6.95;;;15.60;99.90;;;;;;5087383;28;20044;-81
2021/06/14 01:01:41;;;;;;;10.65;7.03;;;15.50;99.90;;;;;;5070860;28;20043;-81
2021/06/14 01:04:06;;;;;;;10.80;6.80;;;15.60;99.90;;;;;;5088006;28;20032;-80
2021/06/14 01:06:32;;;;;;;12.20;6.70;;;15.60;99.90;;;;;;5086420;28;20502;-80
2021/06/14 01:08:59;;;;;;;9.57;6.82;;;15.60;99.90;;;;;;5085901;28;20040;-81
2021/06/14 01:11:30;;;;;;;14.88;7.55;;;15.50;99.90;;;;;;5087758;28;20047;-80
2021/06/14 01:14:00;;;;;;;8.82;6.20;;;15.50;99.90;;;;;;5087224;28;20036;-80
2021/06/14 01:16:44;;;;;;;11.82;7.47;;;15.50;99.90;;;;;;5088678;28;20046;-80
2021/06/14 01:19:44;;;;;;;9.40;6.75;;;15.50;99.90;;;;;;5084930;28;20040;-80
2021/06/14 01:22:28;;;;;;;10.02;7.00;;;15.50;99.90;;;;;;5087172;28;20542;-81
2021/06/14 01:25:27;;;;;;;9.70;7.20;;;15.50;99.90;;;;;;5086261;28;20800;-80
2021/06/14 01:27:56;;;;;;;11.18;6.85;;;15.40;99.90;;;;;;5084944;28;20032;-80
2021/06/14 01:30:34;;;;;;;10.35;6.53;;;15.40;99.90;;;;;;5086447;28;20062;-80
2021/06/14 01:33:01;;;;;;;10.27;7.15;;;15.40;99.90;;;;;;5086398;28;20040;-80
2021/06/14 01:35:45;;;;;;;12.70;7.55;;;15.40;99.90;;;;;;5087180;28;20130;-80
2021/06/14 01:38:12;;;;;;;12.02;7.10;;;15.40;99.90;;;;;;5084682;28;20043;-80
2021/06/14 01:40:40;;;;;;;14.18;7.30;;;15.40;99.90;;;;;;5086870;28;20085;-80
2021/06/14 01:43:10;;;;;;;12.15;7.40;;;15.40;99.90;;;;;;5068260;28;20446;-80
2021/06/14 01:45:42;;;;;;;13.48;7.63;;;15.40;99.90;;;;;;5086799;28;20050;-80
2021/06/14 01:48:08;;;;;;;;;;;15.30;99.90;;;;;;5084616;28;20040;-80
2021/06/14 01:50:34;;;;;;;13.32;6.82;;;15.30;99.90;;;;;;5086844;28;19923;-80
2021/06/14 01:53:00;;;;;;;13.77;6.65;;;15.30;99.90;;;;;;5069418;28;20054;-80
2021/06/14 01:55:27;;;;;;;12.25;6.50;;;15.30;99.90;;;;;;5086554;28;20043;-80
2021/06/14 01:57:53;;;;;;;12.50;7.05;;;15.30;99.90;;;;;;5048494;28;20059;-80
2021/06/14 02:00:21;;;;;;;13.10;6.75;;;15.30;99.90;;;;;;5086093;28;20049;-81
2021/06/14 02:02:49;;;;;;;12.45;6.47;;;15.30;99.90;;;;;;5087667;28;20079;-80
2021/06/14 02:05:19;;;;;;;14.00;6.60;;;15.20;99.90;;;;;;5088123;28;20042;-80
2021/06/14 02:07:45;;;;;;;12.15;6.28;;;15.30;99.90;;;;;;5084534;28;20031;-80
2021/06/14 02:10:12;;;;;;;12.32;6.40;;;15.30;99.90;;;;;;5069378;28;20093;-80
2021/06/14 02:12:43;;;;;;;11.55;6.05;;;15.30;99.90;;;;;;5086355;28;20028;-81
2021/06/14 02:15:10;;;;;;;11.52;6.22;;;15.30;99.90;;;;;;5088202;28;20200;-80
2021/06/14 02:17:40;;;;;;;7.57;5.72;;;15.30;99.90;;;;;;5051871;28;20040;-80
2021/06/14 02:20:07;;;;;;;16.33;6.60;;;15.30;99.90;;;;;;5085311;28;20398;-80
2021/06/14 02:22:35;;;;;;;12.48;6.20;;;15.30;99.90;;;;;;5085876;28;20055;-80
2021/06/14 02:25:01;;;;;;;9.52;5.90;;;15.30;99.90;;;;;;5087502;28;20055;-81
2021/06/14 02:27:27;;;;;;;11.48;6.03;;;15.40;99.90;;;;;;5086135;28;20036;-80
2021/06/14 02:29:52;;;;;;;10.25;6.85;;;15.40;99.90;;;;;;5069314;28;20050;-80
2021/06/14 02:32:18;;;;;;;13.52;5.95;;;15.40;99.90;;;;;;5052647;28;20150;-81
2021/06/14 02:34:44;;;;;;;10.40;5.70;;;15.40;99.90;;;;;;5053301;28;20044;-80
2021/06/14 02:37:13;;;;;;;12.02;6.20;;;15.40;99.90;;;;;;5086763;28;20066;-80
2021/06/14 02:39:39;;;;;;;9.45;5.60;;;15.40;99.90;;;;;;5085326;28;20494;-80
2021/06/14 02:42:07;;;;;;;8.40;5.18;;;15.40;99.90;;;;;;5069537;28;21541;-80
2021/06/14 02:44:33;;;;;;;10.75;5.97;;;15.30;99.90;;;;;;5087657;28;20487;-80
2021/06/14 02:47:10;;;;;;;11.75;6.63;;;15.40;99.90;;;;;;5085876;28;20047;-80
2021/06/14 02:49:37;;;;;;;11.30;6.50;;;15.30;99.90;;;;;;5085218;28;20039;-80
2021/06/14 02:52:08;;;;;;;9.05;5.80;;;15.40;99.90;;;;;;5066269;28;20036;-80
2021/06/14 02:54:41;;;;;;;14.90;7.30;;;15.40;99.90;;;;;;5085024;28;20113;-81
2021/06/14 02:57:10;;;;;;;15.10;6.18;;;15.30;99.90;;;;;;5088743;28;20043;-80
2021/06/14 02:59:36;;;;;;;9.70;5.75;;;15.40;99.90;;;;;;5089020;28;20067;-81
2021/06/14 03:02:04;;;;;;;11.20;6.13;;;15.40;99.90;;;;;;5090950;28;20032;-80
2021/06/14 03:04:32;;;;;;;12.07;6.05;;;15.40;99.90;;;;;;5090460;28;20028;-81
2021/06/14 03:06:58;;;;;;;14.68;5.68;;;15.40;99.90;;;;;;5090285;28;20051;-80
2021/06/14 03:09:25;;;;;;;10.50;5.78;;;15.40;99.90;;;;;;5089573;28;20032;-80
2021/06/14 03:11:51;;;;;;;10.20;5.75;;;15.40;99.90;;;;;;5075253;28;20031;-80
2021/06/14 03:14:18;;;;;;;10.73;5.75;;;15.40;99.90;;;;;;5090090;28;20427;-80
2021/06/14 03:16:45;;;;;;;10.50;6.32;;;15.40;99.90;;;;;;5090927;28;20040;-80
2021/06/14 03:19:13;;;;;;;9.65;6.13;;;15.40;99.90;;;;;;5088852;28;20035;-80
2021/06/14 03:21:40;;;;;;;10.63;6.30;;;15.30;99.90;;;;;;5090065;28;20063;-80
2021/06/14 03:24:07;;;;;;;11.05;6.32;;;15.20;99.90;;;;;;5089993;28;20608;-81
2021/06/14 03:26:39;;;;;;;13.32;6.75;;;15.10;99.90;;;;;;5091802;28;20494;-80
2021/06/14 03:29:07;;;;;;;11.02;6.10;;;15.10;99.90;;;;;;5087978;28;20048;-80
2021/06/14 03:31:33;;;;;;;13.00;5.95;;;15.10;99.90;;;;;;5090111;28;20116;-80
2021/06/14 03:34:00;;;;;;;11.57;6.57;;;15.10;99.90;;;;;;5039776;28;20154;-80
2021/06/14 03:36:30;;;;;;;11.43;6.28;;;15.10;99.90;;;;;;5090281;28;20043;-80
2021/06/14 03:38:56;;;;;;;9.70;5.65;;;15.00;99.90;;;;;;5083167;28;20040;-81
2021/06/14 03:41:23;;;;;;;10.43;5.82;;;15.10;99.90;;;;;;5088759;28;20041;-80
2021/06/14 03:43:49;;;;;;;10.73;6.30;;;15.10;99.90;;;;;;5090564;28;20040;-80
2021/06/14 03:46:15;;;;;;;10.57;6.28;;;15.00;99.90;;;;;;5089652;28;20040;-80
2021/06/14 03:48:41;;;;;;;12.73;6.53;;;15.00;99.90;;;;;;5087915;28;20043;-80
2021/06/14 03:51:08;;;;;;;9.88;6.30;;;15.00;99.90;;;;;;5090756;28;20032;-80
2021/06/14 03:53:34;;;;;;;13.02;6.95;;;15.00;99.90;;;;;;5090830;28;20315;-80
2021/06/14 03:56:03;;;;;;;12.30;6.82;;;15.00;99.90;;;;;;5090051;28;20036;-80
2021/06/14 03:58:29;;;;;;;10.40;6.60;;;15.00;99.90;;;;;;5071283;28;20036;-80
2021/06/14 04:00:55;;;;;;;15.00;8.18;;;15.10;99.90;;;;;;5088907;28;20097;-80
2021/06/14 04:03:23;;;;;;;11.93;6.65;;;15.10;99.90;;;;;;5090776;28;20048;-80
2021/06/14 04:05:49;;;;;;;13.68;6.97;;;15.20;99.90;;;;;;5072234;28;20064;-80
2021/06/14 04:08:15;;;;;;;12.60;6.65;;;15.10;99.90;;;;;;5071876;28;20571;-80
2021/06/14 04:10:41;;;;;;;14.35;7.28;;;15.20;99.90;;;;;;5089392;28;20046;-80
2021/06/14 04:13:08;;;;;;;12.20;6.75;;;15.20;99.90;;;;;;5073292;28;20036;-81
2021/06/14 04:15:34;;;;;;;12.52;7.13;;;15.20;99.90;;;;;;5088975;28;20043;-80
2021/06/14 04:18:00;;;;;;;11.25;7.05;;;15.30;99.90;;;;;;5088622;28;20540;-80
2021/06/14 04:20:25;;;;;;;10.27;6.72;;;15.30;99.90;;;;;;5088006;28;20032;-80
2021/06/14 04:22:52;;;;;;;15.98;7.35;;;15.40;99.90;;;;;;5079020;28;20094;-80
2021/06/14 04:25:18;;;;;;;12.63;7.30;;;15.40;99.90;;;;;;5069924;28;20063;-81
2021/06/14 04:27:44;;;;;;;14.27;6.80;;;15.40;99.90;;;;;;5070079;28;20028;-80
2021/06/14 04:30:12;;;;;;;12.52;7.57;;;15.40;99.90;;;;;;5087757;28;20047;-80
2021/06/14 04:32:37;;;;;;;14.18;7.13;;;15.40;99.90;;;;;;5090235;28;20031;-81
2021/06/14 04:35:05;;;;;;;11.35;7.50;;;15.50;99.90;;;;;;5054839;28;20101;-81
2021/06/14 04:37:31;;;;;;;11.75;6.88;;;15.50;99.90;;;;;;5087952;28;20051;-81
2021/06/14 04:39:58;;;;;;;11.27;6.95;;;15.50;99.90;;;;;;5088054;28;20036;-80
2021/06/14 04:42:27;;;;;;;14.57;6.60;;;15.60;99.90;;;;;;5072059;28;20048;-80
2021/06/14 04:44:53;;;;;;;16.55;7.88;;;15.60;99.90;;;;;;5090396;28;20040;-81
2021/06/14 04:47:20;;;;;;;11.68;7.47;;;15.60;99.90;;;;;;5087890;28;20044;-81
2021/06/14 04:49:46;;;;;;;11.32;7.55;;;15.60;99.90;;;;;;5089136;28;20506;-80
2021/06/14 04:52:12;;;;;;;15.57;7.35;;;15.60;99.90;;;;;;5068209;28;20036;-80
2021/06/14 04:54:38;;;;;;;10.27;7.10;;;15.60;99.90;;;;;;5077824;28;20036;-80
2021/06/14 04:57:05;;;;;;;12.98;7.82;;;15.70;99.90;;;;;;5086938;28;20036;-81
2021/06/14 04:59:30;;;;;;;11.23;7.25;;;15.70;99.90;;;;;;5087554;28;20120;-80
2021/06/14 05:01:56;;;;;;;12.57;7.35;;;15.70;99.90;;;;;;5050807;28;20040;-80
2021/06/14 05:04:22;;;;;;;13.50;7.90;;;15.70;99.90;;;;;;5077406;28;20043;-80
2021/06/14 05:06:48;;;;;;;10.02;6.90;;;15.70;99.90;;;;;;5086744;28;20453;-80
2021/06/14 05:09:14;;;;;;;11.73;7.35;;;15.80;99.90;;;;;;5087365;28;20068;-81
2021/06/14 05:11:39;;;;;;;11.88;7.30;;;15.80;99.90;;;;;;5070427;28;20039;-80
2021/06/14 05:14:05;;;;;;;17.27;7.93;;;15.80;99.90;;;;;;5088982;28;20036;-80
2021/06/14 05:16:31;;;;;;;11.82;7.18;;;15.90;99.90;;;;;;5087625;28;20047;-80
2021/06/14 05:18:58;;;;;;;17.65;7.63;;;15.90;99.90;;;;;;5068549;28;20457;-81
2021/06/14 05:21:24;;;;;;;12.95;7.65;;;15.90;99.90;;;;;;5067381;28;20488;-80
2021/06/14 05:23:51;;;;;;;16.55;9.02;;;15.90;99.90;;;;;;5083100;28;20092;-80
2021/06/14 05:26:16;;;;;;;11.93;7.60;;;15.90;99.90;;;;;;5088420;28;20032;-81
2021/06/14 05:28:42;;;;;;;12.32;7.97;;;16.00;99.90;;;;;;5087113;28;20155;-81
2021/06/14 05:31:08;;;;;;;12.40;7.70;;;16.10;99.90;;;;;;5070936;28;20035;-80
2021/06/14 05:33:34;;;;;;;14.90;7.40;;;16.10;99.90;;;;;;5104227;27;20051;-81
2021/06/14 05:36:43;;;;;;;11.27;7.53;;;16.10;99.90;;;;;;5069847;28;20212;-81
2021/06/14 05:39:08;;;;;;;13.60;8.00;;;16.20;99.90;;;;;;5083548;28;20055;-81
2021/06/14 05:41:34;;;;;;;13.40;7.90;;;16.20;99.90;;;;;;5053241;28;20407;-80
2021/06/14 05:44:00;;;;;;;14.55;7.80;;;16.30;99.90;;;;;;5089436;28;20127;-80
2021/06/14 05:46:26;;;;;;;13.27;7.05;;;16.30;99.90;;;;;;5070238;28;20491;-81
2021/06/14 05:48:52;;;;;;;11.43;7.43;;;16.40;99.90;;;;;;5086139;28;20039;-81
2021/06/14 05:51:18;;;;;;;18.38;8.68;;;16.40;99.90;;;;;;5066579;28;20087;-80
2021/06/14 05:53:48;;;;;;;14.23;7.55;;;16.50;99.90;;;;;;5081960;28;20058;-81
2021/06/14 05:56:17;;;;;;;12.98;7.68;;;16.50;99.90;;;;;;5070715;28;20598;-81
2021/06/14 05:58:43;;;;;;;14.73;7.70;;;16.60;99.90;;;;;;5086923;28;20380;-81
2021/06/14 06:01:09;;;;;;;13.52;7.75;;;16.60;99.90;;;;;;5086648;28;20044;-81
2021/06/14 06:03:35;;;;;;;11.68;7.97;;;16.70;99.90;;;;;;5069921;28;20081;-81
2021/06/14 06:06:00;;;;;;;13.55;7.18;;;16.80;99.90;;;;;;5086382;28;20131;-81
2021/06/14 06:08:26;;;;;;;10.73;6.95;;;16.80;99.90;;;;;;5087516;28;20563;-81
2021/06/14 06:10:52;;;;;;;11.20;7.65;;;16.90;99.90;;;;;;5070047;28;20055;-81
2021/06/14 06:13:18;;;;;;;15.80;7.90;;;16.90;99.90;;;;;;5070009;28;20047;-81
2021/06/14 06:15:44;;;;;;;15.73;7.38;;;17.00;99.90;;;;;;5088217;28;20594;-80
2021/06/14 06:21:51;;;;;;;11.38;6.70;;;17.10;99.90;;;;;;5076600;28;20034;-81
2021/06/14 06:24:17;;;;;;;10.98;6.93;;;17.20;99.90;;;;;;5063315;28;20134;-81
2021/06/14 06:26:42;;;;;;;11.63;6.20;;;17.30;99.90;;;;;;5066153;28;20064;-81
2021/06/14 06:29:08;;;;;;;15.07;6.90;;;17.30;99.90;;;;;;5085042;28;20040;-81
2021/06/14 06:31:34;;;;;;;12.90;6.10;;;17.40;99.90;;;;;;5085555;28;20036;-81
2021/06/14 06:34:00;;;;;;;11.32;5.55;;;17.40;99.90;;;;;;5086882;28;20051;-81
2021/06/14 06:36:27;;;;;;;11.65;5.43;;;17.50;99.90;;;;;;5053148;28;20051;-81
2021/06/14 06:38:52;;;;;;;10.95;5.38;;;17.60;99.90;;;;;;5065785;28;20032;-81
2021/06/14 06:41:18;;;;;;;15.10;5.95;;;17.60;99.90;;;;;;5068527;28;20105;-81
2021/06/14 06:43:44;;;;;;;14.57;5.20;;;17.60;99.90;;;;;;5070339;28;20036;-81
2021/06/14 06:46:11;;;;;;;10.02;4.82;;;17.70;99.90;;;;;;5086787;28;20040;-81
2021/06/14 06:48:37;;;;;;;12.75;4.60;;;17.80;99.90;;;;;;5085501;28;20032;-81
2021/06/14 06:51:03;;;;;;;8.52;5.05;;;17.90;99.90;;;;;;5088057;28;20406;-81
2021/06/14 06:53:29;;;;;;;12.25;5.50;;;18.00;99.90;;;;;;5086276;28;20044;-80
2021/06/14 06:55:56;;;;;;;14.20;5.53;;;18.00;99.90;;;;;;5052336;28;20043;-81
2021/06/14 06:58:22;;;;;;;14.00;5.18;;;18.10;99.90;;;;;;5086257;28;20058;-80
2021/06/14 07:00:48;;;;;;;13.50;5.72;;;18.20;99.90;;;;;;5068429;28;20069;-81
2021/06/14 07:03:18;;;;;;;10.57;4.20;;;18.20;99.90;;;;;;5067102;28;20071;-81
2021/06/14 07:05:46;;;;;;;10.27;4.90;;;18.30;99.90;;;;;;5068712;28;20048;-81
2021/06/14 07:08:12;;;;;;;12.23;4.63;;;18.30;99.90;;;;;;5083215;28;20032;-80
2021/06/14 07:10:38;;;;;;;10.02;4.28;;;18.40;99.90;;;;;;5051896;28;20063;-80
2021/06/14 07:13:06;;;;;;;12.90;4.97;;;18.40;99.90;;;;;;5069144;28;20031;-84
2021/06/14 07:15:33;;;;;;;8.88;4.32;;;18.50;99.90;;;;;;5068594;28;20036;-84
2021/06/14 07:18:00;;;;;;;13.73;4.63;;;18.50;99.90;;;;;;5048521;28;20037;-81
2021/06/14 07:20:28;;;;;;;13.43;4.55;;;18.50;99.90;;;;;;5100828;28;20032;-82
2021/06/14 07:22:54;;;;;;;12.48;4.97;;;18.60;99.90;;;;;;5073000;28;20399;-81
2021/06/14 07:25:21;;;;;;;12.82;5.03;;;18.70;99.90;;;;;;5082029;28;20115;-82
2021/06/14 07:27:47;;;;;;;13.52;4.82;;;18.80;99.90;;;;;;5084188;28;20085;-81
2021/06/14 07:30:15;;;;;;;13.23;4.60;;;18.80;99.90;;;;;;5067065;28;20090;-81
2021/06/14 07:32:42;;;;;;;13.57;5.15;;;18.80;99.90;;;;;;5065136;28;20059;-81
2021/06/14 07:35:09;;;;;;;15.38;4.22;;;18.90;99.90;;;;;;5061383;28;20045;-81
2021/06/14 07:37:35;;;;;;;13.90;5.68;;;19.00;99.90;;;;;;5116929;28;20491;-81
2021/06/14 07:40:01;;;;;;;13.38;4.40;;;19.00;99.90;;;;;;5085152;28;20165;-82
2021/06/14 07:42:26;;;;;;;13.48;4.65;;;19.20;99.90;;;;;;5088018;28;20036;-82
2021/06/14 07:44:52;;;;;;;14.73;4.03;;;19.20;99.90;;;;;;5088718;28;20040;-81
2021/06/14 07:47:19;;;;;;;14.70;4.57;;;19.40;99.90;;;;;;5071849;28;20602;-82
2021/06/14 07:49:44;;;;;;;14.30;4.97;;;19.50;99.90;;;;;;5056480;28;20114;-81
2021/06/14 07:52:10;;;;;;;10.00;4.50;;;19.60;99.90;;;;;;5090076;28;20147;-81
2021/06/14 07:54:36;;;;;;;11.65;4.63;;;19.70;99.90;;;;;;5056889;28;20036;-81
2021/06/14 07:57:03;;;;;;;12.85;4.75;;;19.80;99.90;;;;;;5072101;28;20039;-81
2021/06/14 07:59:28;;;;;;;13.73;5.55;;;19.90;99.90;;;;;;5090460;28;20045;-81
2021/06/14 08:01:54;;;;;;;7.85;4.68;;;19.90;99.90;;;;;;5054017;28;20839;-82
2021/06/14 08:04:20;;;;;;;11.25;4.40;;;20.00;99.90;;;;;;5088113;28;20038;-81
2021/06/14 08:06:46;;;;;;;8.93;4.32;;;20.10;99.90;;;;;;5088597;28;20028;-82
2021/06/14 08:09:16;;;;;;;10.85;4.55;;;20.10;99.90;;;;;;5087615;28;20036;-81
2021/06/14 08:11:44;;;;;;;11.02;3.92;;;20.20;99.90;;;;;;5088939;28;20031;-81
2021/06/14 08:14:10;;;;;;;17.67;5.28;;;20.20;99.90;;;;;;5072323;28;20020;-85
2021/06/14 08:16:42;;;;;;;10.52;4.18;;;20.30;99.90;;;;;;5067209;28;20118;-81
2021/06/14 08:19:12;;;;;;;12.85;4.18;;;20.30;99.90;;;;;;5087775;28;20035;-81
2021/06/14 08:27:07;;;;;;;13.25;3.95;;;20.50;99.90;;;;;;5088824;28;20040;-80
2021/06/14 08:29:33;;;;;;;21.23;5.63;;;20.50;99.90;;;;;;5088251;28;20078;-81
2021/06/14 08:31:59;;;;;;;11.50;4.30;;;20.60;99.90;;;;;;5088195;28;20467;-81
2021/06/14 08:34:25;;;;;;;14.63;4.45;;;20.70;99.90;;;;;;5088199;28;20514;-82
2021/06/14 08:36:51;;;;;;;11.93;4.72;;;20.70;99.90;;;;;;5087520;28;20048;-80
2021/06/14 08:39:17;;;;;;;15.48;5.22;;;20.70;99.90;;;;;;5070446;28;20043;-81
2021/06/14 08:41:45;;;;;;;13.40;4.47;;;20.70;99.90;;;;;;5087934;28;20056;-80
2021/06/14 08:44:11;;;;;;;10.57;4.70;;;20.80;99.90;;;;;;5088131;28;20053;-81
2021/06/14 08:46:37;;;;;;;11.35;4.25;;;20.90;99.90;;;;;;5088668;28;20075;-81
2021/06/14 08:49:05;;;;;;;10.05;3.70;;;20.90;99.90;;;;;;5069403;28;20505;-81
2021/06/14 08:51:31;;;;;;;9.30;4.10;;;20.90;99.90;;;;;;5088159;28;20036;-81
2021/06/14 08:53:57;;;;;;;12.25;4.45;;;21.00;99.90;;;;;;5068573;28;20039;-81
2021/06/14 08:56:25;;;;;;;8.65;4.50;;;21.10;99.90;;;;;;5079809;28;20050;-80
2021/06/14 08:58:52;;;;;;;16.65;5.57;;;21.10;99.90;;;;;;5085258;28;20135;-80
2021/06/14 09:01:18;;;;;;;13.38;5.10;;;21.10;99.90;;;;;;5087363;28;20032;-80
2021/06/14 09:03:44;;;;;;;10.95;4.32;;;21.20;99.90;;;;;;5089107;28;20039;-81
2021/06/14 09:06:11;;;;;;;13.98;4.78;;;21.20;99.90;;;;;;5051147;28;20049;-80
2021/06/14 09:08:37;;;;;;;10.88;5.30;;;21.20;99.90;;;;;;5080871;28;20044;-81
2021/06/14 09:11:03;;;;;;;15.57;5.32;;;21.20;99.90;;;;;;5083476;28;20530;-80
2021/06/14 09:13:32;;;;;;;10.43;5.28;;;21.30;99.90;;;;;;5085073;28;20152;-81
2021/06/14 09:16:13;;;;;;;19.17;5.85;;;21.40;99.90;;;;;;5087798;28;20035;-80
2021/06/14 09:18:41;;;;;;;13.48;6.03;;;21.40;99.90;;;;;;5087256;28;20063;-81
2021/06/14 09:21:11;;;;;;;13.85;6.05;;;21.30;99.90;;;;;;5087854;28;20073;-81
2021/06/14 09:23:46;;;;;;;13.15;6.63;;;21.40;99.90;;;;;;5057458;28;20059;-81
2021/06/14 09:26:32;;;;;;;14.63;5.72;;;21.40;99.90;;;;;;5089031;28;20093;-80
2021/06/14 09:29:06;;;;;;;13.57;6.15;;;21.40;99.90;;;;;;5085780;28;20484;-80
2021/06/14 09:31:54;;;;;;;17.05;5.97;;;21.50;99.90;;;;;;5087984;28;20036;-80
2021/06/14 09:34:35;;;;;;;14.63;5.57;;;21.50;99.90;;;;;;5086557;28;20056;-81
2021/06/14 09:37:06;;;;;;;18.30;6.87;;;21.60;99.90;;;;;;5086671;28;20131;-80
2021/06/14 09:39:41;;;;;;;11.00;5.68;;;21.60;99.90;;;;;;5069437;28;20397;-80
2021/06/14 09:42:14;;;;;;;12.88;6.28;;;21.60;99.90;;;;;;5089017;28;20036;-81
2021/06/14 09:44:40;;;;;;;12.55;7.03;;;21.60;99.90;;;;;;5087557;28;20046;-81
2021/06/14 09:47:08;;;;;;;17.15;6.28;;;21.70;99.90;;;;;;5065988;28;20109;-81
2021/06/14 09:49:36;;;;;;;14.55;6.90;;;21.70;99.90;;;;;;5076694;28;20113;-81
2021/06/14 09:52:04;;;;;;;18.58;6.90;;;21.70;99.90;;;;;;5070881;28;20032;-81
2021/06/14 09:54:32;;;;;;;19.80;6.80;;;21.80;99.90;;;;;;5088062;28;20046;-81
2021/06/14 09:56:59;;;;;;;15.23;6.38;;;21.80;99.90;;;;;;5086130;28;20079;-81
2021/06/14 09:59:30;;;;;;;13.80;6.47;;;21.90;99.90;;;;;;5086081;28;20047;-80
2021/06/14 10:02:05;;;;;;;14.30;5.90;;;22.00;99.90;;;;;;5085510;28;20028;-82
2021/06/14 10:04:31;;;;;;;14.20;7.38;;;21.90;99.90;;;;;;5073956;28;20035;-81
2021/06/14 10:07:08;;;;;;;18.67;7.32;;;22.00;99.90;;;;;;5086956;28;20039;-80
2021/06/14 10:09:56;;;;;;;15.23;7.25;;;22.10;99.90;;;;;;5098026;27;20028;-81
2021/06/14 10:12:22;;;;;;;13.65;7.03;;;22.10;99.90;;;;;;5085386;28;20043;-81
2021/06/14 10:14:59;;;;;;;15.82;7.90;;;22.20;99.90;;;;;;5074356;28;20045;-81
2021/06/14 10:17:36;;;;;;;16.50;7.72;;;22.10;99.90;;;;;;5083921;28;20488;-81
2021/06/14 10:20:09;;;;;;;13.68;6.38;;;22.30;99.90;;;;;;5084156;28;20067;-81
2021/06/14 10:22:36;;;;;;;16.27;7.90;;;22.30;99.90;;;;;;5085676;28;20036;-81
2021/06/14 10:25:03;;;;;;;17.75;6.20;;;22.30;99.90;;;;;;5049112;28;20113;-80
2021/06/14 10:27:29;;;;;;;16.35;6.90;;;22.40;99.90;;;;;;5068062;28;20639;-81
2021/06/14 10:29:55;;;;;;;15.45;7.50;;;22.40;99.50;;;;;;5084827;28;20062;-81
2021/06/14 10:32:21;;;;;;;14.63;6.90;;;22.40;99.40;;;;;;5084797;28;20067;-81
2021/06/14 10:34:49;;;;;;;14.73;7.38;;;22.40;99.80;;;;;;5068907;28;20057;-80
2021/06/14 10:37:15;;;;;;;13.90;6.30;;;22.40;99.90;;;;;;5086251;28;20063;-81
2021/06/14 10:39:45;;;;;;;20.27;6.50;;;22.40;99.20;;;;;;5086845;28;20032;-81
2021/06/14 10:42:12;;;;;;;16.92;6.82;;;22.50;99.90;;;;;;5086328;28;20105;-81
2021/06/14 10:44:38;;;;;;;18.02;7.40;;;22.50;99.90;;;;;;5086566;28;20028;-81
2021/06/14 10:47:08;;;;;;;14.00;6.55;;;22.50;99.80;;;;;;5085964;28;20040;-81
2021/06/14 10:49:35;;;;;;;15.50;5.85;;;22.60;99.20;;;;;;5087334;28;20282;-81
2021/06/14 10:52:04;;;;;;;14.90;6.80;;;22.70;98.60;;;;;;5088101;28;20040;-81
2021/06/14 10:54:44;;;;;;;17.63;6.68;;;22.70;98.00;;;;;;5087969;28;20032;-81
2021/06/14 10:57:11;;;;;;;12.48;6.25;;;22.80;96.80;;;;;;5081662;28;20067;-81
2021/06/14 10:59:39;;;;;;;13.57;6.00;;;22.80;97.70;;;;;;5085395;28;20105;-81
2021/06/14 11:02:06;;;;;;;14.52;5.82;;;22.90;97.70;;;;;;5087983;28;20032;-81
2021/06/14 11:04:32;;;;;;;12.90;6.18;;;22.90;97.00;;;;;;5086240;28;20043;-81
2021/06/14 11:07:00;;;;;;;12.65;5.75;;;22.90;97.20;;;;;;5069218;28;20055;-81
2021/06/14 11:09:40;;;;;;;14.20;6.72;;;22.90;97.40;;;;;;5087344;28;20093;-81
2021/06/14 11:12:07;;;;;;;12.93;4.70;;;22.90;96.40;;;;;;5086359;28;20063;-81
2021/06/14 11:14:38;;;;;;;14.65;5.80;;;22.90;98.00;;;;;;5069823;28;20032;-81
2021/06/14 11:17:18;;;;;;;14.43;5.53;;;23.00;98.00;;;;;;5087700;28;20075;-81
2021/06/14 11:19:47;;;;;;;15.55;5.93;;;23.00;97.60;;;;;;5089421;28;20049;-81
2021/06/14 11:22:14;;;;;;;14.10;5.80;;;23.10;97.20;;;;;;5091356;28;20058;-81
2021/06/14 11:24:42;;;;;;;10.73;5.30;;;23.10;97.90;;;;;;5090217;28;20036;-81
2021/06/14 11:27:10;;;;;;;13.32;6.25;;;23.10;98.10;;;;;;5088731;28;20086;-81
2021/06/14 11:29:52;;;;;;;15.07;6.70;;;23.10;96.80;;;;;;5082710;28;20036;-81
2021/06/14 11:32:21;;;;;;;16.00;5.63;;;23.10;97.00;;;;;;5085384;28;20088;-81
2021/06/14 11:34:54;;;;;;;13.70;6.35;;;23.10;97.10;;;;;;5089419;28;20063;-81
2021/06/14 11:37:20;;;;;;;11.98;5.80;;;23.10;96.80;;;;;;5089537;28;20044;-81
2021/06/14 11:39:57;;;;;;;12.65;6.38;;;23.10;97.70;;;;;;5075231;28;20040;-81
2021/06/14 11:42:24;;;;;;;15.23;7.20;;;23.20;97.80;;;;;;5088912;28;20071;-81
2021/06/14 11:44:59;;;;;;;13.77;6.03;;;23.30;98.20;;;;;;5072229;28;20036;-81
2021/06/14 11:47:29;;;;;;;12.98;6.28;;;23.30;98.40;;;;;;5054094;28;20055;-81
2021/06/14 11:50:01;;;;;;;12.50;5.30;;;23.40;97.70;;;;;;5072540;28;20040;-81
2021/06/14 11:52:35;;;;;;;11.80;8.00;;;23.40;97.50;;;;;;5090429;28;20044;-81
2021/06/14 11:55:07;;;;;;;12.38;6.40;;;23.50;96.70;;;;;;5091004;28;20841;-81
2021/06/14 11:57:37;;;;;;;19.25;6.30;;;23.50;97.50;;;;;;5087800;28;20036;-81
2021/06/14 12:00:07;;;;;;;14.77;7.18;;;23.50;98.20;;;;;;5090851;28;20039;-81
2021/06/14 12:02:33;;;;;;;12.40;6.10;;;23.60;97.50;;;;;;5089061;28;20036;-81
2021/06/14 12:05:02;;;;;;;12.70;5.82;;;23.70;97.80;;;;;;5072547;28;20531;-80
2021/06/14 12:07:33;;;;;;;14.65;5.68;;;23.70;97.60;;;;;;5055137;28;20043;-81
2021/06/14 12:10:02;;;;;;;11.93;6.20;;;23.70;97.60;;;;;;5089062;28;20028;-81
2021/06/14 12:12:27;;;;;;;10.82;4.63;;;23.80;97.50;;;;;;5090129;28;20040;-81
2021/06/14 12:14:55;;;;;;;11.00;5.90;;;23.70;97.60;;;;;;5072892;28;20032;-81
2021/06/14 12:17:32;;;;;;;12.90;5.47;;;23.80;98.00;;;;;;5088060;28;20171;-81
2021/06/14 12:20:00;;;;;;;14.88;6.43;;;23.70;97.30;;;;;;5089419;28;20036;-81
2021/06/14 12:22:29;;;;;;;14.13;7.60;;;23.70;97.40;;;;;;5088326;28;20040;-81
2021/06/14 12:25:00;;;;;;;12.90;6.20;;;23.70;97.10;;;;;;5090175;28;20075;-81
2021/06/14 12:27:26;;;;;;;14.43;6.65;;;23.70;98.30;;;;;;5087577;28;20052;-81
2021/06/14 12:30:01;;;;;;;11.05;6.78;;;23.70;98.40;;;;;;5071584;28;20519;-81
2021/06/14 12:32:30;;;;;;;12.35;6.80;;;23.90;97.40;;;;;;5088541;28;20550;-81
2021/06/14 12:34:59;;;;;;;14.15;7.00;;;23.90;97.40;;;;;;5088713;28;20079;-81
2021/06/14 12:37:25;;;;;;;13.70;8.25;;;24.00;97.80;;;;;;5087672;28;20040;-81
2021/06/14 12:40:01;;;;;;;14.30;7.68;;;24.00;98.30;;;;;;5089403;28;20057;-81
2021/06/14 12:42:28;;;;;;;13.55;7.25;;;24.00;98.10;;;;;;5087818;28;20051;-81
2021/06/14 12:44:59;;;;;;;15.25;7.82;;;24.00;98.30;;;;;;5088864;28;20036;-81
2021/06/14 12:47:25;;;;;;;10.18;6.60;;;24.00;98.10;;;;;;5087808;28;20044;-81
2021/06/14 12:49:52;;;;;;;24.05;8.48;;;24.00;95.10;;;;;;5089222;28;20036;-81
2021/06/14 12:52:20;;;;;;;18.45;8.85;;;24.00;96.30;;;;;;5068947;28;20044;-81